Time;durP1;ratioP1;P1;durP2;ratioP2;P2;SDS_P1;SDS_P2;PMS_P1;PMS_P2;Temp;Humidity;BMP_temperature;BMP_pressure;BME280_temperature;BME280_humidity;BME280_pressure;Samples;Min_cycle;Max_cycle;Signal;HPM_P1;HPM_P2
2023/10/08 00:01:55;;;;;;;3.47;0.50;;;14.30;99.90;;;;;;5053038;28;20063;-75
2023/10/08 00:04:21;;;;;;;0.88;0.40;;;14.30;99.90;;;;;;5053050;28;20500;-75
2023/10/08 00:06:47;;;;;;;0.80;0.40;;;14.30;99.90;;;;;;5052807;28;20102;-76
2023/10/08 00:09:14;;;;;;;2.03;0.52;;;14.20;99.90;;;;;;5052513;28;20092;-76
2023/10/08 00:11:40;;;;;;;2.72;0.55;;;14.20;99.90;;;;;;5053119;28;20154;-75
2023/10/08 00:14:10;;;;;;;2.00;0.40;;;14.20;99.90;;;;;;5052876;28;20507;-75
2023/10/08 00:16:39;;;;;;;1.23;0.50;;;14.20;99.90;;;;;;5052975;28;20460;-75
2023/10/08 00:19:09;;;;;;;0.40;0.35;;;14.20;99.90;;;;;;5052424;28;20471;-75
2023/10/08 00:21:37;;;;;;;1.33;0.30;;;14.10;99.90;;;;;;5036384;28;20045;-75
2023/10/08 00:24:06;;;;;;;1.63;0.25;;;14.00;99.90;;;;;;5036260;28;20401;-75
2023/10/08 00:26:35;;;;;;;2.83;0.38;;;14.00;99.90;;;;;;5052065;28;20461;-76
2023/10/08 00:29:06;;;;;;;0.98;0.13;;;13.90;99.90;;;;;;5051565;28;20411;-74
2023/10/08 00:31:40;;;;;;;4.68;0.40;;;13.90;99.90;;;;;;5052877;28;20111;-75
2023/10/08 00:34:12;;;;;;;3.58;0.32;;;13.90;99.90;;;;;;5052488;28;20048;-75
2023/10/08 00:36:43;;;;;;;2.05;0.47;;;13.90;99.90;;;;;;5052505;28;20072;-75
2023/10/08 00:39:13;;;;;;;3.40;0.40;;;13.90;99.90;;;;;;5052137;28;20504;-75
2023/10/08 00:41:43;;;;;;;2.83;0.57;;;13.90;99.90;;;;;;5052360;28;20067;-76
2023/10/08 00:44:13;;;;;;;6.43;1.00;;;13.90;99.90;;;;;;5035802;28;20424;-75
2023/10/08 00:46:47;;;;;;;3.72;0.43;;;13.90;99.90;;;;;;5052279;28;20049;-75
2023/10/08 00:51:59;;;;;;;3.20;0.40;;;13.90;99.90;;;;;;5052447;28;20053;-75
2023/10/08 00:54:28;;;;;;;2.60;0.50;;;13.90;99.90;;;;;;5052347;28;20400;-75
2023/10/08 00:56:57;;;;;;;1.33;0.43;;;13.90;99.90;;;;;;5051146;28;20033;-75
2023/10/08 00:59:23;;;;;;;1.40;0.45;;;13.90;99.90;;;;;;5051510;28;20037;-75
2023/10/08 01:02:04;;;;;;;0.35;0.15;;;13.90;99.90;;;;;;5052010;28;20037;-76
2023/10/08 01:04:33;;;;;;;1.67;0.50;;;13.90;99.90;;;;;;5051811;28;20041;-74
2023/10/08 01:07:01;;;;;;;3.42;0.50;;;13.90;99.90;;;;;;5051996;28;20041;-75
2023/10/08 01:10:10;;;;;;;2.00;0.20;;;14.00;99.90;;;;;;5051827;28;20580;-75
2023/10/08 01:14:55;;;;;;;2.15;0.45;;;14.00;99.90;;;;;;5051923;28;20401;-75
2023/10/08 01:17:31;;;;;;;1.88;0.38;;;14.00;99.90;;;;;;5051010;28;20382;-75
2023/10/08 01:20:08;;;;;;;3.20;0.30;;;14.00;99.90;;;;;;5033651;28;20057;-75
2023/10/08 01:22:34;;;;;;;2.15;0.57;;;14.00;99.90;;;;;;5051734;28;20137;-75
2023/10/08 01:25:01;;;;;;;2.53;0.45;;;14.00;99.90;;;;;;5035257;28;20378;-75
2023/10/08 01:27:34;;;;;;;2.88;0.60;;;14.00;99.90;;;;;;5034655;28;20051;-75
2023/10/08 01:30:36;;;;;;;3.10;0.63;;;13.90;99.90;;;;;;5049697;28;20052;-75
2023/10/08 01:32:52;;;;;;;2.60;0.40;;;13.90;99.90;;;;;;5049510;28;20041;-75
2023/10/08 01:35:23;;;;;;;3.25;0.40;;;13.90;99.90;;;;;;5051724;28;20377;-75
2023/10/08 01:37:52;;;;;;;2.47;0.52;;;13.90;99.90;;;;;;5051260;28;20037;-75
2023/10/08 01:40:18;;;;;;;1.92;0.38;;;13.90;99.90;;;;;;5050947;28;20044;-76
2023/10/08 01:42:45;;;;;;;3.45;0.50;;;13.90;99.90;;;;;;5050469;28;20043;-75
2023/10/08 01:45:18;;;;;;;2.00;0.68;;;13.80;99.90;;;;;;5033723;28;20043;-75
2023/10/08 01:47:44;;;;;;;1.45;0.45;;;13.80;99.90;;;;;;5049191;28;20037;-75
2023/10/08 01:50:21;;;;;;;4.03;0.35;;;13.80;99.90;;;;;;5050081;28;20131;-75
2023/10/08 01:52:47;;;;;;;2.33;0.40;;;13.80;99.90;;;;;;5051073;28;20045;-75
2023/10/08 01:55:17;;;;;;;3.13;0.60;;;13.80;99.90;;;;;;5034300;28;20047;-75
2023/10/08 01:57:43;;;;;;;4.60;0.50;;;13.80;99.90;;;;;;5051337;28;20395;-75
2023/10/08 02:00:09;;;;;;;2.05;0.40;;;13.80;99.90;;;;;;5050632;28;20136;-75
2023/10/08 02:02:36;;;;;;;1.33;0.40;;;13.80;99.90;;;;;;5034253;28;20072;-74
2023/10/08 02:05:04;;;;;;;3.88;0.60;;;13.80;99.90;;;;;;5050630;28;20069;-75
2023/10/08 02:07:30;;;;;;;1.77;0.73;;;13.70;99.90;;;;;;5050637;28;20040;-75
2023/10/08 02:09:57;;;;;;;4.35;0.80;;;13.80;99.90;;;;;;5049484;28;20443;-75
2023/10/08 02:12:22;;;;;;;1.67;0.40;;;13.80;99.90;;;;;;5033887;28;20041;-75
2023/10/08 02:14:48;;;;;;;3.40;0.68;;;13.80;99.90;;;;;;5049983;28;20041;-76
2023/10/08 02:17:14;;;;;;;2.28;0.57;;;13.80;99.90;;;;;;5050017;28;20044;-76
2023/10/08 02:19:41;;;;;;;1.27;0.50;;;13.80;99.90;;;;;;5049527;28;20416;-74
2023/10/08 02:22:09;;;;;;;2.53;0.63;;;13.80;99.90;;;;;;5050482;28;20055;-75
2023/10/08 02:24:36;;;;;;;1.75;0.55;;;13.70;99.90;;;;;;5050309;28;20044;-75
2023/10/08 02:27:01;;;;;;;2.85;0.95;;;13.70;99.90;;;;;;5050637;28;20447;-75
2023/10/08 02:29:30;;;;;;;3.75;0.60;;;13.70;99.90;;;;;;5049997;28;20029;-76
2023/10/08 02:31:56;;;;;;;2.22;0.63;;;13.70;99.90;;;;;;5050411;28;20040;-74
2023/10/08 02:34:22;;;;;;;2.38;0.70;;;13.70;99.90;;;;;;5050251;28;20522;-75
2023/10/08 02:36:48;;;;;;;2.72;0.63;;;13.70;99.90;;;;;;5050248;28;20119;-75
2023/10/08 02:39:20;;;;;;;3.63;0.73;;;13.60;99.90;;;;;;5049827;28;20124;-75
2023/10/08 02:41:46;;;;;;;2.25;0.50;;;13.60;99.90;;;;;;5050010;28;20068;-75
2023/10/08 02:44:13;;;;;;;2.58;0.60;;;13.60;99.90;;;;;;5049940;28;20071;-74
2023/10/08 02:46:49;;;;;;;5.10;0.75;;;13.60;99.90;;;;;;5050120;28;20037;-76
2023/10/08 02:49:20;;;;;;;5.50;0.90;;;13.60;99.90;;;;;;5048021;28;20512;-76
2023/10/08 02:51:50;;;;;;;5.35;0.93;;;13.60;99.90;;;;;;5032811;28;20075;-76
2023/10/08 02:54:17;;;;;;;4.18;0.70;;;13.50;99.90;;;;;;5049921;28;20041;-75
2023/10/08 02:56:51;;;;;;;4.35;0.68;;;13.60;99.90;;;;;;5050039;28;20385;-75
2023/10/08 02:59:16;;;;;;;4.07;0.90;;;13.60;99.90;;;;;;5048821;28;20064;-75
2023/10/08 03:01:42;;;;;;;4.05;0.60;;;13.50;99.90;;;;;;5031783;28;20040;-74
2023/10/08 03:04:18;;;;;;;3.50;0.70;;;13.60;99.90;;;;;;5049913;28;20457;-75
2023/10/08 03:06:49;;;;;;;2.25;0.70;;;13.60;99.90;;;;;;5049973;28;20496;-76
2023/10/08 03:09:20;;;;;;;2.25;0.68;;;13.60;99.90;;;;;;5049445;28;20047;-75
2023/10/08 03:11:49;;;;;;;4.63;0.50;;;13.60;99.90;;;;;;5033254;28;20500;-76
2023/10/08 03:14:21;;;;;;;3.83;0.82;;;13.50;99.90;;;;;;5049448;28;20083;-75
2023/10/08 03:16:54;;;;;;;2.67;0.73;;;13.50;99.90;;;;;;5033159;28;20045;-75
2023/10/08 03:19:21;;;;;;;2.05;0.55;;;13.50;99.90;;;;;;5049365;28;20048;-76
2023/10/08 03:21:51;;;;;;;1.83;0.57;;;13.50;99.90;;;;;;5053154;28;20508;-75
2023/10/08 03:27:07;;;;;;;2.80;0.57;;;13.50;99.90;;;;;;5054017;28;20045;-76
2023/10/08 03:29:40;;;;;;;3.30;0.52;;;13.50;99.90;;;;;;5053609;28;20098;-76
2023/10/08 03:32:06;;;;;;;1.92;0.52;;;13.50;99.90;;;;;;5053647;28;20029;-75
2023/10/08 03:34:34;;;;;;;2.53;0.60;;;13.40;99.90;;;;;;5053473;28;20037;-75
2023/10/08 03:37:05;;;;;;;2.38;0.60;;;13.40;99.90;;;;;;5053201;28;20048;-75
2023/10/08 03:39:50;;;;;;;3.10;0.60;;;13.30;99.90;;;;;;5035525;28;20488;-75
2023/10/08 03:42:25;;;;;;;0.90;0.30;;;13.30;99.90;;;;;;5053338;28;20630;-76
2023/10/08 03:44:52;;;;;;;4.55;0.50;;;13.30;99.90;;;;;;5053459;28;20066;-74
2023/10/08 03:47:23;;;;;;;3.47;0.70;;;13.30;99.90;;;;;;5053071;28;20037;-75
2023/10/08 03:49:52;;;;;;;3.88;0.80;;;13.30;99.90;;;;;;5036717;28;20125;-76
2023/10/08 03:52:23;;;;;;;3.05;0.55;;;13.30;99.90;;;;;;5053393;28;20124;-75
2023/10/08 03:55:03;;;;;;;4.88;0.75;;;13.20;99.90;;;;;;5053077;28;20045;-75
2023/10/08 03:57:41;;;;;;;2.00;0.60;;;13.20;99.90;;;;;;5053184;28;20129;-75
2023/10/08 04:00:12;;;;;;;2.10;0.70;;;13.10;99.90;;;;;;5052208;28;20520;-75
2023/10/08 04:02:41;;;;;;;1.67;0.68;;;13.10;99.90;;;;;;5052425;28;20511;-75
2023/10/08 04:05:19;;;;;;;5.50;0.80;;;13.00;99.90;;;;;;5052475;28;20499;-75
2023/10/08 04:08:16;;;;;;;1.90;0.75;;;13.00;99.90;;;;;;5052981;28;20123;-76
2023/10/08 04:13:08;;;;;;;4.82;0.85;;;13.00;99.90;;;;;;5052939;28;20052;-75
2023/10/08 04:15:40;;;;;;;5.18;0.80;;;13.00;99.90;;;;;;5052810;28;20090;-76
2023/10/08 04:18:10;;;;;;;4.53;0.82;;;13.10;99.90;;;;;;5052886;28;20151;-76
2023/10/08 04:20:39;;;;;;;4.72;1.05;;;13.00;99.90;;;;;;5052533;28;20167;-75
2023/10/08 04:23:18;;;;;;;2.58;0.70;;;13.00;99.90;;;;;;5052651;28;20119;-75
2023/10/08 04:25:44;;;;;;;3.05;0.90;;;13.10;99.90;;;;;;5035877;28;20042;-76
2023/10/08 04:28:18;;;;;;;2.38;0.70;;;13.20;99.90;;;;;;5052748;28;20029;-75
2023/10/08 04:30:47;;;;;;;2.22;0.70;;;13.20;99.90;;;;;;5052542;28;20049;-75
2023/10/08 04:33:13;;;;;;;4.88;1.00;;;13.30;99.90;;;;;;5051268;28;20053;-75
2023/10/08 04:35:55;;;;;;;2.00;0.90;;;13.30;99.90;;;;;;5051596;28;20494;-75
2023/10/08 04:38:23;;;;;;;2.47;1.05;;;13.30;99.90;;;;;;5051978;28;20126;-75
2023/10/08 04:40:51;;;;;;;5.03;1.30;;;13.30;99.90;;;;;;5052431;28;20052;-75
2023/10/08 04:43:27;;;;;;;5.38;1.55;;;13.30;99.90;;;;;;5052362;28;20118;-76
2023/10/08 04:45:56;;;;;;;3.78;1.35;;;13.20;99.90;;;;;;5035545;28;20049;-75
2023/10/08 04:48:23;;;;;;;4.22;1.48;;;13.20;99.90;;;;;;5051827;28;20045;-75
2023/10/08 04:50:59;;;;;;;3.60;1.20;;;13.20;99.90;;;;;;5052280;28;20606;-76
2023/10/08 04:53:32;;;;;;;3.30;1.20;;;13.20;99.90;;;;;;5052431;28;20416;-75
2023/10/08 04:56:16;;;;;;;3.20;1.10;;;13.20;99.90;;;;;;5052239;28;20101;-76
2023/10/08 04:58:46;;;;;;;3.35;1.30;;;13.20;99.90;;;;;;5051740;28;20584;-75
2023/10/08 05:01:38;;;;;;;3.35;1.30;;;13.20;99.90;;;;;;5035231;28;20048;-76
2023/10/08 05:09:22;;;;;;;5.75;1.40;;;13.30;99.90;;;;;;5051797;28;20076;-76
2023/10/08 05:17:21;;;;;;;4.75;1.67;;;13.30;99.90;;;;;;5051926;28;20386;-76
2023/10/08 05:19:56;;;;;;;4.75;1.48;;;13.30;99.90;;;;;;5051617;28;20044;-75
2023/10/08 05:38:15;;;;;;;3.03;1.33;;;13.30;99.90;;;;;;5051161;28;20048;-75
2023/10/08 05:49:01;;;;;;;;;;;13.20;99.90;;;;;;5051334;28;20388;-76
2023/10/08 06:02:54;;;;;;;5.93;1.30;;;13.20;99.90;;;;;;5050806;28;20076;-76
2023/10/08 06:05:26;;;;;;;6.95;1.70;;;13.20;99.90;;;;;;5049681;28;20063;-75
2023/10/08 06:13:06;;;;;;;5.53;1.55;;;13.20;99.90;;;;;;5050929;28;20103;-75
2023/10/08 06:18:27;;;;;;;;;;;13.20;99.90;;;;;;5038085;28;20248;-76
2023/10/08 06:20:58;;;;;;;6.93;1.52;;;13.20;99.90;;;;;;5050245;28;19927;-76
2023/10/08 06:23:25;;;;;;;5.80;1.38;;;13.20;99.90;;;;;;5050515;28;20045;-76
2023/10/08 06:26:05;;;;;;;3.00;1.08;;;13.20;99.90;;;;;;5050270;28;20137;-76
2023/10/08 06:28:34;;;;;;;5.10;1.30;;;13.20;99.90;;;;;;5050348;28;20040;-76
2023/10/08 06:31:01;;;;;;;5.68;1.52;;;13.10;99.90;;;;;;5050110;28;20094;-76
2023/10/08 06:33:33;;;;;;;4.90;1.35;;;13.10;99.90;;;;;;5050363;28;20044;-76
2023/10/08 06:36:02;;;;;;;6.20;1.92;;;13.10;99.90;;;;;;5050403;28;20052;-76
2023/10/08 06:38:34;;;;;;;6.00;1.42;;;13.20;99.90;;;;;;5049660;28;20037;-75
2023/10/08 06:41:08;;;;;;;7.80;1.80;;;13.30;99.90;;;;;;5050244;28;20324;-76
2023/10/08 06:43:36;;;;;;;4.85;1.67;;;13.30;99.90;;;;;;5050067;28;20048;-76
2023/10/08 06:46:03;;;;;;;4.03;1.35;;;13.40;99.90;;;;;;5050414;28;20045;-75
2023/10/08 06:48:29;;;;;;;5.82;1.45;;;13.40;99.90;;;;;;5049596;28;20051;-75
2023/10/08 06:50:56;;;;;;;5.43;1.40;;;13.40;99.90;;;;;;5049840;28;20040;-76
2023/10/08 06:53:22;;;;;;;6.10;1.58;;;13.50;99.90;;;;;;5049885;28;20552;-75
2023/10/08 06:55:54;;;;;;;4.60;1.80;;;13.60;99.90;;;;;;5049374;28;20087;-76
2023/10/08 06:58:20;;;;;;;7.88;1.90;;;13.60;99.90;;;;;;5049595;28;20106;-76
2023/10/08 07:00:48;;;;;;;3.90;1.75;;;13.70;99.90;;;;;;5049093;28;20513;-76
2023/10/08 07:03:15;;;;;;;6.65;2.00;;;13.70;99.90;;;;;;5049686;28;20036;-75
2023/10/08 07:05:57;;;;;;;6.38;1.40;;;13.70;99.90;;;;;;5049918;28;20049;-76
2023/10/08 07:08:25;;;;;;;6.75;1.65;;;13.70;99.90;;;;;;5049365;28;20025;-75
2023/10/08 07:10:52;;;;;;;7.78;1.50;;;13.70;99.90;;;;;;5050069;28;20452;-76
2023/10/08 07:13:24;;;;;;;5.35;1.40;;;13.70;99.90;;;;;;5048849;28;20113;-75
2023/10/08 07:15:50;;;;;;;8.00;1.45;;;13.70;99.90;;;;;;5048149;28;20052;-75
2023/10/08 07:18:22;;;;;;;6.20;1.48;;;13.80;99.90;;;;;;5048384;28;20094;-76
2023/10/08 07:20:53;;;;;;;4.30;1.05;;;13.90;99.90;;;;;;5049610;28;20098;-76
2023/10/08 07:23:24;;;;;;;5.50;1.33;;;13.90;99.90;;;;;;5033562;28;20396;-76
2023/10/08 07:26:14;;;;;;;8.60;1.42;;;13.90;99.90;;;;;;5050009;28;20443;-75
2023/10/08 07:28:40;;;;;;;8.93;1.52;;;13.90;99.90;;;;;;5049620;28;20044;-76
2023/10/08 07:31:17;;;;;;;7.07;1.20;;;13.90;99.90;;;;;;5049547;28;20048;-76
2023/10/08 07:33:55;;;;;;;9.77;1.40;;;13.90;99.90;;;;;;5049510;28;20124;-76
2023/10/08 07:36:21;;;;;;;3.72;1.20;;;13.90;99.90;;;;;;5050249;28;20048;-76
2023/10/08 07:38:46;;;;;;;5.13;1.58;;;14.00;99.90;;;;;;5049425;28;20044;-76
2023/10/08 07:41:14;;;;;;;5.50;1.63;;;14.00;99.90;;;;;;5049414;28;20056;-76
2023/10/08 07:43:41;;;;;;;9.75;1.52;;;14.00;99.90;;;;;;5049387;28;20037;-76
2023/10/08 07:46:07;;;;;;;4.38;1.10;;;13.90;99.90;;;;;;5049620;28;20041;-75
2023/10/08 07:48:33;;;;;;;4.53;1.40;;;13.90;99.90;;;;;;5049057;28;20057;-77
2023/10/08 07:50:58;;;;;;;8.50;1.10;;;13.90;99.90;;;;;;5049373;28;20393;-76
2023/10/08 07:53:25;;;;;;;5.90;1.13;;;14.00;99.90;;;;;;5049540;28;20056;-76
2023/10/08 07:55:51;;;;;;;6.28;1.50;;;14.00;99.90;;;;;;5049365;28;20045;-76
2023/10/08 07:58:18;;;;;;;11.75;2.15;;;14.10;99.90;;;;;;5049044;28;20040;-76
2023/10/08 08:00:53;;;;;;;6.82;1.42;;;14.10;99.90;;;;;;5049293;28;20522;-75
2023/10/08 08:03:20;;;;;;;4.28;1.00;;;14.00;99.90;;;;;;5049178;28;20500;-76
2023/10/08 08:05:46;;;;;;;6.47;1.40;;;14.00;99.90;;;;;;5049305;28;20041;-76
2023/10/08 08:08:17;;;;;;;5.72;1.25;;;14.00;99.90;;;;;;5052664;28;20043;-76
2023/10/08 08:10:44;;;;;;;8.48;1.50;;;14.00;99.90;;;;;;5053070;28;20059;-76
2023/10/08 08:13:09;;;;;;;7.68;1.48;;;14.00;99.90;;;;;;5052778;28;20325;-76
2023/10/08 08:15:40;;;;;;;6.60;1.10;;;14.00;99.90;;;;;;5052894;28;20535;-76
2023/10/08 08:18:07;;;;;;;9.88;1.45;;;14.00;99.90;;;;;;5052703;28;20048;-76
2023/10/08 08:20:38;;;;;;;9.75;1.50;;;14.10;99.90;;;;;;5052411;28;20049;-76
2023/10/08 08:23:07;;;;;;;10.40;1.40;;;14.10;99.90;;;;;;5052798;28;20040;-76
2023/10/08 08:25:45;;;;;;;5.13;1.20;;;14.10;99.90;;;;;;5052694;28;20029;-75
2023/10/08 08:28:16;;;;;;;9.65;2.50;;;14.10;99.90;;;;;;5052523;28;20508;-76
2023/10/08 08:30:47;;;;;;;7.72;2.05;;;14.10;99.90;;;;;;5052594;28;20040;-76
2023/10/08 08:33:21;;;;;;;10.18;2.15;;;14.20;99.90;;;;;;5051709;28;20037;-75
2023/10/08 08:35:47;;;;;;;8.30;1.73;;;14.20;99.90;;;;;;5052056;28;20048;-76
2023/10/08 08:38:13;;;;;;;8.38;1.70;;;14.30;99.90;;;;;;5052376;28;20045;-75
2023/10/08 08:40:39;;;;;;;6.05;1.17;;;14.30;99.90;;;;;;5052077;28;20037;-76
2023/10/08 08:43:06;;;;;;;8.90;1.40;;;14.40;99.90;;;;;;5052353;28;20079;-76
2023/10/08 08:45:33;;;;;;;7.97;1.65;;;14.40;99.90;;;;;;5052123;28;20041;-76
2023/10/08 08:48:00;;;;;;;7.85;1.23;;;14.50;99.90;;;;;;5053471;28;20119;-75
2023/10/08 08:50:26;;;;;;;6.55;1.40;;;14.60;99.90;;;;;;5053372;28;20041;-75
2023/10/08 08:52:52;;;;;;;6.55;1.63;;;14.60;99.90;;;;;;5052436;28;20404;-75
2023/10/08 08:55:20;;;;;;;6.15;1.30;;;14.70;99.90;;;;;;5052087;28;20045;-75
2023/10/08 08:57:50;;;;;;;7.47;1.05;;;14.80;99.90;;;;;;5035365;28;20045;-76
2023/10/08 09:00:18;;;;;;;6.65;1.30;;;14.80;99.90;;;;;;5051617;28;20049;-75
2023/10/08 09:02:44;;;;;;;6.30;1.35;;;14.80;99.90;;;;;;5053310;28;20485;-76
2023/10/08 09:05:23;;;;;;;7.15;1.45;;;14.70;99.90;;;;;;5051848;28;20508;-75
2023/10/08 09:08:03;;;;;;;5.72;1.08;;;14.70;99.90;;;;;;5052090;28;20116;-75
2023/10/08 09:10:29;;;;;;;6.28;1.40;;;14.80;99.90;;;;;;5051415;28;20052;-76
2023/10/08 09:12:59;;;;;;;8.73;1.42;;;14.80;99.90;;;;;;5050667;28;20037;-75
2023/10/08 09:15:26;;;;;;;4.47;1.30;;;14.80;99.90;;;;;;5052069;28;20123;-75
2023/10/08 09:17:56;;;;;;;5.55;1.30;;;14.90;99.90;;;;;;5051031;28;20496;-76
2023/10/08 09:20:22;;;;;;;8.60;1.33;;;15.00;99.90;;;;;;5050796;28;20041;-75
2023/10/08 09:23:11;;;;;;;8.30;1.52;;;15.10;99.90;;;;;;5051531;28;20037;-76
2023/10/08 09:25:37;;;;;;;8.60;1.20;;;15.20;99.90;;;;;;5051647;28;20033;-75
2023/10/08 09:28:07;;;;;;;10.13;1.80;;;15.30;99.90;;;;;;5051658;28;20411;-75
2023/10/08 09:30:39;;;;;;;9.45;1.52;;;15.40;99.90;;;;;;5051480;28;20408;-76
2023/10/08 09:33:10;;;;;;;6.50;1.33;;;15.50;99.90;;;;;;5051673;28;20527;-74
2023/10/08 09:35:36;;;;;;;11.32;1.58;;;15.60;99.90;;;;;;5049963;28;20045;-75
2023/10/08 09:38:08;;;;;;;7.22;1.65;;;15.70;99.90;;;;;;5050120;28;20044;-75
2023/10/08 09:40:37;;;;;;;10.48;2.33;;;15.80;99.90;;;;;;5050716;28;20048;-75
2023/10/08 09:43:03;;;;;;;7.00;1.70;;;15.80;99.90;;;;;;5051252;28;20120;-75
2023/10/08 09:45:30;;;;;;;6.88;1.48;;;15.80;99.90;;;;;;5051283;28;20500;-75
2023/10/08 09:47:56;;;;;;;9.50;1.90;;;15.80;99.90;;;;;;5050716;28;20044;-75
2023/10/08 09:50:32;;;;;;;6.72;1.30;;;15.80;99.90;;;;;;5050288;28;20120;-75
2023/10/08 09:53:20;;;;;;;7.15;1.23;;;15.80;99.90;;;;;;5049973;28;20431;-75
2023/10/08 09:55:54;;;;;;;11.35;1.95;;;15.90;99.90;;;;;;5051211;28;20099;-75
2023/10/08 09:58:22;;;;;;;7.35;1.40;;;15.90;99.90;;;;;;5033879;28;20091;-74
2023/10/08 10:00:49;;;;;;;10.00;1.38;;;15.80;99.90;;;;;;5050866;28;20057;-75
2023/10/08 10:03:18;;;;;;;12.90;2.10;;;15.80;99.90;;;;;;5051022;28;20455;-75
2023/10/08 10:05:44;;;;;;;7.05;1.42;;;15.80;99.90;;;;;;5050858;28;20435;-74
2023/10/08 10:08:11;;;;;;;9.45;1.40;;;15.80;99.90;;;;;;5050670;28;20041;-74
2023/10/08 10:10:38;;;;;;;7.18;1.30;;;15.80;99.90;;;;;;5050413;28;20062;-74
2023/10/08 10:13:07;;;;;;;10.00;1.55;;;15.80;99.90;;;;;;5033822;28;20492;-75
2023/10/08 10:15:36;;;;;;;14.32;1.48;;;15.90;99.90;;;;;;5050567;28;20049;-75
2023/10/08 10:18:16;;;;;;;9.02;1.33;;;15.90;99.90;;;;;;5049558;28;20071;-75
2023/10/08 10:20:46;;;;;;;7.80;1.42;;;16.10;99.90;;;;;;5049535;28;20422;-75
2023/10/08 10:23:40;;;;;;;7.25;1.50;;;16.20;99.90;;;;;;5050576;28;20040;-75
2023/10/08 10:26:25;;;;;;;6.78;1.90;;;16.20;99.90;;;;;;5051693;28;20041;-74
2023/10/08 10:29:10;;;;;;;12.18;2.00;;;16.10;99.90;;;;;;5050233;28;20071;-76
2023/10/08 10:31:40;;;;;;;6.15;1.25;;;16.10;99.90;;;;;;5049877;28;20063;-75
2023/10/08 10:34:09;;;;;;;7.90;1.58;;;16.10;99.90;;;;;;5050725;28;20516;-75
2023/10/08 10:36:35;;;;;;;7.85;1.00;;;16.10;99.90;;;;;;5050198;28;20094;-75
2023/10/08 10:39:15;;;;;;;7.05;1.25;;;16.20;99.90;;;;;;5050010;28;20439;-75
2023/10/08 10:41:42;;;;;;;6.90;1.42;;;16.30;99.90;;;;;;5050019;28;20041;-76
2023/10/08 10:44:08;;;;;;;8.35;1.65;;;16.40;99.90;;;;;;5049966;28;20036;-75
2023/10/08 10:46:41;;;;;;;6.47;1.30;;;16.30;99.90;;;;;;5049958;28;20076;-75
2023/10/08 10:49:23;;;;;;;6.63;1.20;;;16.30;99.90;;;;;;5049970;28;20369;-75
2023/10/08 10:51:57;;;;;;;6.55;1.45;;;16.20;99.90;;;;;;5050014;28;20036;-75
2023/10/08 10:54:23;;;;;;;7.43;1.50;;;16.30;99.90;;;;;;5033797;28;20051;-74
2023/10/08 10:57:17;;;;;;;8.73;1.67;;;16.40;99.90;;;;;;5049762;28;20068;-74
2023/10/08 10:59:52;;;;;;;7.00;1.23;;;16.40;99.90;;;;;;5049892;28;20512;-75
2023/10/08 11:02:31;;;;;;;8.73;1.60;;;16.50;99.90;;;;;;5049015;28;20041;-75
2023/10/08 11:05:07;;;;;;;5.47;1.38;;;16.60;99.90;;;;;;5049431;28;20119;-74
2023/10/08 11:07:34;;;;;;;8.13;1.60;;;16.90;99.90;;;;;;5050148;28;20370;-74
2023/10/08 11:10:00;;;;;;;6.63;1.67;;;17.20;99.90;;;;;;5049740;28;20041;-74
2023/10/08 11:12:42;;;;;;;8.45;1.60;;;17.40;99.90;;;;;;5049652;28;20045;-75
2023/10/08 11:15:15;;;;;;;7.20;1.40;;;17.50;99.90;;;;;;5049887;28;20408;-76
2023/10/08 11:17:41;;;;;;;5.25;1.38;;;17.50;99.90;;;;;;5050011;28;20091;-75
2023/10/08 11:20:26;;;;;;;7.22;1.58;;;17.50;99.90;;;;;;5049328;28;20402;-75
2023/10/08 11:22:53;;;;;;;9.50;1.52;;;17.60;99.90;;;;;;5050025;28;20040;-75
2023/10/08 11:25:27;;;;;;;8.55;1.17;;;17.60;99.90;;;;;;5049618;28;20041;-75
2023/10/08 11:28:01;;;;;;;;;;;17.50;99.90;;;;;;5049877;28;20523;-74
2023/10/08 11:30:30;;;;;;;5.50;1.30;;;17.40;99.90;;;;;;5032933;28;19924;-75
2023/10/08 11:33:00;;;;;;;5.28;1.23;;;17.40;99.90;;;;;;5049790;28;20051;-74
2023/10/08 11:35:28;;;;;;;7.97;1.23;;;17.40;99.90;;;;;;5049861;28;20091;-74
2023/10/08 11:38:00;;;;;;;7.18;1.50;;;17.40;99.90;;;;;;5049359;28;20540;-74
2023/10/08 11:40:30;;;;;;;6.13;1.58;;;17.40;99.90;;;;;;5049053;28;20060;-74
2023/10/08 11:43:03;;;;;;;;;;;17.40;99.90;;;;;;5036569;28;20044;-74
2023/10/08 11:45:38;;;;;;;5.00;1.23;;;17.50;99.90;;;;;;5053356;28;19969;-74
2023/10/08 11:48:13;;;;;;;5.57;1.30;;;17.50;99.90;;;;;;5053242;28;20033;-73
2023/10/08 11:50:40;;;;;;;6.88;1.13;;;17.50;99.90;;;;;;5053213;28;20099;-74
2023/10/08 11:53:06;;;;;;;4.53;1.00;;;17.50;99.90;;;;;;5053102;28;20048;-73
2023/10/08 11:55:37;;;;;;;6.18;1.38;;;17.50;99.90;;;;;;5053000;28;20052;-74
2023/10/08 11:58:09;;;;;;;6.93;1.70;;;17.50;99.90;;;;;;5053313;28;20049;-75
2023/10/08 12:00:45;;;;;;;8.23;1.30;;;17.40;99.90;;;;;;5053015;28;20037;-74
2023/10/08 12:03:18;;;;;;;5.72;1.40;;;17.30;99.90;;;;;;5053512;28;20037;-74
2023/10/08 12:05:48;;;;;;;8.70;1.40;;;17.40;99.90;;;;;;5053040;28;20029;-73
2023/10/08 12:08:22;;;;;;;8.50;1.45;;;17.30;99.90;;;;;;5052795;28;20048;-74
2023/10/08 12:10:48;;;;;;;;;;;17.30;99.90;;;;;;5053508;28;20052;-73
2023/10/08 12:13:16;;;;;;;7.90;1.50;;;17.30;99.90;;;;;;5052777;28;20693;-73
2023/10/08 12:15:44;;;;;;;4.95;1.27;;;17.30;99.90;;;;;;5052938;28;20047;-73
2023/10/08 12:18:24;;;;;;;5.07;1.20;;;17.30;99.90;;;;;;5053031;28;20059;-75
2023/10/08 12:20:50;;;;;;;6.47;1.50;;;17.40;99.90;;;;;;5052810;28;20049;-75
2023/10/08 12:23:25;;;;;;;7.70;1.65;;;17.40;99.90;;;;;;5053076;28;20037;-75
2023/10/08 12:25:59;;;;;;;6.30;1.52;;;17.20;99.90;;;;;;5052843;28;20043;-74
2023/10/08 12:28:29;;;;;;;8.45;1.40;;;17.40;99.90;;;;;;5052116;28;20043;-74
2023/10/08 12:30:55;;;;;;;8.68;1.33;;;17.50;99.90;;;;;;5052620;28;20072;-74
2023/10/08 12:33:25;;;;;;;4.53;1.58;;;17.70;99.90;;;;;;5052477;28;20040;-74
2023/10/08 12:35:55;;;;;;;5.50;1.08;;;17.70;99.90;;;;;;5052869;28;20064;-74
2023/10/08 12:38:22;;;;;;;6.28;1.08;;;17.60;99.90;;;;;;5052071;28;20045;-74
2023/10/08 12:40:52;;;;;;;5.68;1.33;;;17.60;99.90;;;;;;5052209;28;20041;-74
2023/10/08 12:43:22;;;;;;;6.28;1.27;;;17.60;99.90;;;;;;5052264;28;20073;-74
2023/10/08 12:45:53;;;;;;;9.75;1.60;;;17.50;99.90;;;;;;5052230;28;20052;-74
2023/10/08 12:48:27;;;;;;;5.95;1.42;;;17.50;99.90;;;;;;5051917;28;20036;-75
2023/10/08 12:50:59;;;;;;;5.57;1.13;;;17.60;99.90;;;;;;5052406;28;20095;-73
2023/10/08 12:53:36;;;;;;;5.60;1.30;;;17.60;99.90;;;;;;5051077;28;20053;-73
2023/10/08 12:56:05;;;;;;;6.90;1.20;;;17.60;99.90;;;;;;5051963;28;20140;-74
2023/10/08 12:58:38;;;;;;;5.25;1.30;;;17.70;99.90;;;;;;5051605;28;20067;-74
2023/10/08 13:01:03;;;;;;;9.02;1.45;;;17.80;99.90;;;;;;5050463;28;20508;-75
2023/10/08 13:03:32;;;;;;;6.85;1.58;;;17.90;99.90;;;;;;5052030;28;20094;-74
2023/10/08 13:06:03;;;;;;;7.45;2.75;;;17.90;99.90;;;;;;5052195;28;20447;-75
2023/10/08 13:08:34;;;;;;;9.52;1.38;;;18.20;99.90;;;;;;5051781;28;20098;-74
2023/10/08 13:11:03;;;;;;;6.13;1.15;;;18.40;99.90;;;;;;5051861;28;20041;-75
2023/10/08 13:13:29;;;;;;;5.07;1.17;;;18.40;99.90;;;;;;5051873;28;20052;-73
2023/10/08 13:15:56;;;;;;;6.63;1.48;;;18.60;99.90;;;;;;5051815;28;20049;-74
2023/10/08 13:18:25;;;;;;;7.60;1.40;;;18.90;99.90;;;;;;5051482;28;20076;-74
2023/10/08 13:20:52;;;;;;;6.57;1.50;;;19.10;99.90;;;;;;5051690;28;20037;-74
2023/10/08 13:23:23;;;;;;;8.52;1.50;;;19.20;99.90;;;;;;5051510;28;20041;-75
2023/10/08 13:25:54;;;;;;;7.13;1.17;;;19.20;99.90;;;;;;5051802;28;20442;-74
2023/10/08 13:28:23;;;;;;;8.38;1.40;;;19.20;99.90;;;;;;5050193;28;20094;-74
2023/10/08 13:30:52;;;;;;;5.00;1.15;;;19.10;99.90;;;;;;5051339;28;20535;-74
2023/10/08 13:33:24;;;;;;;6.38;1.27;;;19.10;99.90;;;;;;5051486;28;20041;-74
2023/10/08 13:35:51;;;;;;;10.48;1.58;;;18.90;99.90;;;;;;5051405;28;20036;-75
2023/10/08 13:38:20;;;;;;;6.43;1.30;;;18.80;99.90;;;;;;5051060;28;20052;-74
2023/10/08 13:41:06;;;;;;;6.82;1.50;;;18.70;99.90;;;;;;5051136;28;20527;-75
2023/10/08 13:43:33;;;;;;;5.63;1.13;;;18.60;99.90;;;;;;5051029;28;20044;-74
2023/10/08 13:46:04;;;;;;;5.45;1.20;;;18.50;99.90;;;;;;5051407;28;20108;-75
2023/10/08 13:48:35;;;;;;;7.82;1.20;;;18.50;99.90;;;;;;5050941;28;20048;-73
2023/10/08 13:51:05;;;;;;;4.88;1.10;;;18.40;99.90;;;;;;5051031;28;20045;-75
2023/10/08 13:53:36;;;;;;;9.02;1.42;;;18.40;99.90;;;;;;5034830;28;20452;-74
2023/10/08 13:56:04;;;;;;;9.32;1.75;;;18.40;99.90;;;;;;5050763;28;20044;-73
2023/10/08 13:58:30;;;;;;;6.80;1.48;;;18.40;99.90;;;;;;5050565;28;20047;-75
2023/10/08 14:01:00;;;;;;;7.32;1.10;;;18.30;99.90;;;;;;5050963;28;20351;-75
2023/10/08 14:03:30;;;;;;;7.50;1.25;;;18.20;99.90;;;;;;5050730;28;20048;-74
2023/10/08 14:06:04;;;;;;;9.20;2.28;;;18.20;99.90;;;;;;5050750;28;20040;-74
2023/10/08 14:08:30;;;;;;;;;;;18.00;99.90;;;;;;5050623;28;22224;-74
2023/10/08 14:11:02;;;;;;;6.15;1.30;;;17.90;99.90;;;;;;5050402;28;19927;-73